createdAt,value
2023-03-31T00:01:00.998Z,11.76
2023-03-31T00:04:05.629Z,11.69
2023-03-31T00:07:08.528Z,11.66
2023-03-31T00:13:19.408Z,11.51
2023-03-31T00:16:22.404Z,11.32
2023-03-31T00:19:25.133Z,11.22
2023-03-31T00:22:27.920Z,11.19
2023-03-31T00:25:30.764Z,11.13
2023-03-31T00:28:33.878Z,11.05
2023-03-31T00:31:36.823Z,11.01
2023-03-31T00:34:39.694Z,10.97
2023-03-31T00:37:43.516Z,10.93
2023-03-31T00:40:47.439Z,10.91
2023-03-31T00:44:19.120Z,10.90
2023-03-31T00:47:23.273Z,10.87
2023-03-31T00:50:30.111Z,10.88
2023-03-31T00:53:35.034Z,10.87
2023-03-31T00:56:43.919Z,10.91
2023-03-31T00:59:53.648Z,10.86
2023-03-31T01:03:00.007Z,10.84
2023-03-31T01:06:06.684Z,10.88
2023-03-31T01:09:10.067Z,10.85
2023-03-31T01:12:16.034Z,10.78
2023-03-31T01:15:20.050Z,10.78
2023-03-31T01:18:23.946Z,10.87
2023-03-31T01:21:39.260Z,10.84
2023-03-31T01:25:01.859Z,10.87
2023-03-31T01:28:16.649Z,10.79
2023-03-31T01:31:38.141Z,10.83
2023-03-31T01:34:57.830Z,10.76
2023-03-31T01:38:19.512Z,10.72
2023-03-31T01:41:31.089Z,10.72
2023-03-31T01:44:39.746Z,10.74
2023-03-31T01:47:54.727Z,10.67
2023-03-31T01:51:07.807Z,10.57
2023-03-31T01:54:29.435Z,10.58
2023-03-31T01:57:39.712Z,10.60
2023-03-31T02:00:52.098Z,10.66
2023-03-31T02:04:07.400Z,10.63
2023-03-31T02:07:19.356Z,10.57
2023-03-31T02:10:24.355Z,10.50
2023-03-31T02:13:29.361Z,10.47
2023-03-31T02:16:34.968Z,10.41
2023-03-31T02:19:41.289Z,10.43
2023-03-31T02:22:48.973Z,10.42
2023-03-31T02:25:54.327Z,10.39
2023-03-31T02:28:58.742Z,10.35
2023-03-31T02:32:26.662Z,10.36
2023-03-31T02:35:29.637Z,10.20
2023-03-31T02:38:37.188Z,10.13
2023-03-31T02:41:41.490Z,10.04
2023-03-31T02:44:44.429Z,9.98
2023-03-31T02:47:47.294Z,9.91
2023-03-31T02:50:59.668Z,9.86
2023-03-31T02:54:20.757Z,9.77
2023-03-31T02:58:07.282Z,9.69
2023-03-31T03:01:27.664Z,9.63
2023-03-31T03:04:43.352Z,9.59
2023-03-31T03:08:04.122Z,9.73
2023-03-31T03:11:26.304Z,9.72
2023-03-31T03:14:40.884Z,9.66
2023-03-31T03:17:48.416Z,9.55
2023-03-31T03:20:51.286Z,9.51
2023-03-31T03:23:54.987Z,9.45
2023-03-31T03:26:57.903Z,9.43
2023-03-31T03:30:02.810Z,9.45
2023-03-31T03:33:07.094Z,9.26
2023-03-31T03:36:10.831Z,9.10
2023-03-31T03:39:13.805Z,9.08
2023-03-31T03:42:17.079Z,9.08
2023-03-31T03:45:19.795Z,9.05
2023-03-31T03:48:22.541Z,9.08
2023-03-31T03:51:25.630Z,9.16
2023-03-31T03:54:28.443Z,9.12
2023-03-31T03:57:31.354Z,9.16
2023-03-31T04:00:34.402Z,9.10
2023-03-31T04:03:37.218Z,9.03
2023-03-31T04:06:40.065Z,9.00
2023-03-31T04:09:43.143Z,9.07
2023-03-31T04:12:45.961Z,9.01
2023-03-31T04:15:48.870Z,8.95
2023-03-31T04:18:56.929Z,8.81
2023-03-31T04:22:02.986Z,8.79
2023-03-31T04:25:15.131Z,8.77
2023-03-31T04:28:18.094Z,8.77
2023-03-31T04:31:25.695Z,8.83
2023-03-31T04:34:35.397Z,8.80
2023-03-31T04:37:39.063Z,9.04
2023-03-31T04:40:41.899Z,9.31
2023-03-31T04:43:44.968Z,9.53
2023-03-31T04:46:47.738Z,9.76
2023-03-31T04:49:50.527Z,9.91
2023-03-31T04:52:53.353Z,9.99
2023-03-31T04:55:56.445Z,10.09
2023-03-31T04:58:59.167Z,10.20
2023-03-31T05:02:02.073Z,10.21
2023-03-31T05:05:05.190Z,10.27
2023-03-31T05:08:08.241Z,10.35
2023-03-31T05:11:11.507Z,10.41
2023-03-31T05:14:14.349Z,10.41
2023-03-31T05:17:18.057Z,10.53
2023-03-31T05:20:21.780Z,10.63
2023-03-31T05:23:24.525Z,10.67
2023-03-31T05:26:27.336Z,10.83
2023-03-31T05:29:31.299Z,10.98
2023-03-31T05:32:34.244Z,11.10
2023-03-31T05:35:37.130Z,11.21
2023-03-31T05:38:40.946Z,11.32
2023-03-31T05:41:43.827Z,11.51
2023-03-31T05:44:46.666Z,11.85
2023-03-31T05:47:49.478Z,12.06
2023-03-31T05:50:52.491Z,12.35
2023-03-31T05:53:55.406Z,12.55
2023-03-31T05:56:58.649Z,12.52
2023-03-31T06:00:01.506Z,12.50
2023-03-31T06:03:11.639Z,12.69
2023-03-31T06:06:18.487Z,12.62
2023-03-31T06:09:22.138Z,12.55
2023-03-31T06:12:25.215Z,12.55
2023-03-31T06:15:28.197Z,12.61
2023-03-31T06:18:33.081Z,12.59
2023-03-31T06:21:36.124Z,12.70
2023-03-31T06:24:38.955Z,12.80
2023-03-31T06:27:41.670Z,12.94
2023-03-31T06:30:44.585Z,13.47
2023-03-31T06:33:48.276Z,13.48
2023-03-31T06:36:51.146Z,13.61
2023-03-31T06:39:54.007Z,13.95
2023-03-31T06:42:56.871Z,14.15
2023-03-31T06:45:59.796Z,14.31
2023-03-31T06:49:04.430Z,14.94
2023-03-31T06:52:07.691Z,15.01
2023-03-31T06:55:10.620Z,14.96
2023-03-31T06:58:14.534Z,14.62
2023-03-31T07:01:21.168Z,14.76
2023-03-31T07:04:25.554Z,15.16
2023-03-31T07:07:32.508Z,14.88
2023-03-31T07:10:35.685Z,14.46
2023-03-31T07:13:38.731Z,14.44
2023-03-31T07:16:41.791Z,15.78
2023-03-31T07:19:48.288Z,16.09
2023-03-31T07:22:51.417Z,17.50
2023-03-31T07:25:54.999Z,17.91
2023-03-31T07:29:05.814Z,17.36
2023-03-31T07:32:10.105Z,17.52
2023-03-31T07:35:13.606Z,17.13
2023-03-31T07:38:16.658Z,16.42
2023-03-31T07:41:21.834Z,16.50
2023-03-31T07:44:24.830Z,16.35
2023-03-31T07:47:28.566Z,18.12
2023-03-31T07:50:31.573Z,20.30
2023-03-31T07:53:37.278Z,21.63
2023-03-31T07:56:40.660Z,22.81
2023-03-31T07:59:48.828Z,22.92
2023-03-31T08:02:53.073Z,23.22
2023-03-31T08:05:56.661Z,24.06
2023-03-31T08:09:01.916Z,21.92
2023-03-31T08:12:06.868Z,19.87
2023-03-31T08:15:11.415Z,20.98
2023-03-31T08:18:14.801Z,22.89
2023-03-31T08:21:23.014Z,23.26
2023-03-31T08:24:27.312Z,25.08
2023-03-31T08:27:43.541Z,23.76
2023-03-31T08:30:53.553Z,22.95
2023-03-31T08:33:57.743Z,23.70
2023-03-31T08:37:01.229Z,23.68
2023-03-31T08:40:06.041Z,24.00
2023-03-31T08:43:43.505Z,24.50
2023-03-31T08:47:18.364Z,24.85
2023-03-31T08:50:25.772Z,25.42
2023-03-31T08:53:39.632Z,25.91
2023-03-31T08:56:47.588Z,24.89
2023-03-31T08:59:51.508Z,25.37
2023-03-31T09:03:16.820Z,23.93
2023-03-31T09:06:34.931Z,23.32
2023-03-31T09:10:20.891Z,22.69
2023-03-31T09:13:42.415Z,23.47
2023-03-31T09:16:45.577Z,24.02
2023-03-31T09:19:57.154Z,25.85
2023-03-31T09:23:29.866Z,26.57
2023-03-31T09:26:39.515Z,27.11
2023-03-31T09:30:04.237Z,27.03
2023-03-31T09:33:12.718Z,27.08
2023-03-31T09:36:22.617Z,24.97
2023-03-31T09:39:26.089Z,27.42
2023-03-31T09:42:29.034Z,27.07
2023-03-31T09:45:34.405Z,27.37
2023-03-31T09:48:39.584Z,26.29
2023-03-31T09:52:19.125Z,26.51
2023-03-31T09:55:43.298Z,26.50
2023-03-31T09:58:49.037Z,26.08
2023-03-31T10:01:54.132Z,26.80
2023-03-31T10:04:57.124Z,26.84
2023-03-31T10:08:15.193Z,26.67
2023-03-31T10:11:18.700Z,26.98
2023-03-31T10:14:45.892Z,27.62
2023-03-31T10:20:59.444Z,28.33
2023-03-31T10:24:09.607Z,29.29
2023-03-31T10:27:30.553Z,28.96
2023-03-31T10:30:38.249Z,29.65
2023-03-31T10:33:46.544Z,28.04
2023-03-31T10:36:52.147Z,28.44
2023-03-31T10:40:06.950Z,29.72
2023-03-31T10:43:18.618Z,29.33
2023-03-31T10:46:39.375Z,29.26
2023-03-31T10:49:44.883Z,31.27
2023-03-31T10:52:49.302Z,30.15
2023-03-31T10:56:44.769Z,29.77
2023-03-31T10:59:54.465Z,28.41
2023-03-31T11:03:15.697Z,28.76
2023-03-31T11:06:32.064Z,27.93
2023-03-31T11:09:50.104Z,27.66
2023-03-31T11:13:05.929Z,29.92
2023-03-31T11:16:08.870Z,27.46
2023-03-31T11:19:34.810Z,26.81
2023-03-31T11:22:55.164Z,28.45
2023-03-31T11:26:13.886Z,29.77
2023-03-31T11:29:32.013Z,31.22
2023-03-31T11:33:03.228Z,32.50
2023-03-31T11:36:29.170Z,33.44
2023-03-31T11:40:08.224Z,29.25
2023-03-31T11:43:36.675Z,29.73
2023-03-31T11:46:46.462Z,28.61
2023-03-31T11:49:55.694Z,28.42
2023-03-31T11:53:27.612Z,29.58
2023-03-31T11:56:37.949Z,30.25
2023-03-31T11:59:46.978Z,30.57
2023-03-31T12:03:41.701Z,29.05
2023-03-31T12:06:47.582Z,29.36
2023-03-31T12:10:23.295Z,29.58
2023-03-31T12:13:41.256Z,29.59
2023-03-31T12:16:48.735Z,30.05
2023-03-31T12:19:59.175Z,29.79
2023-03-31T12:23:05.921Z,32.05
2023-03-31T12:26:46.128Z,31.05
2023-03-31T12:29:59.618Z,32.15
2023-03-31T12:33:08.013Z,29.93
2023-03-31T12:36:42.126Z,29.82
2023-03-31T12:40:16.766Z,30.00
2023-03-31T12:43:46.529Z,29.61
2023-03-31T12:47:17.793Z,27.85
2023-03-31T12:50:35.871Z,29.24
2023-03-31T12:54:03.626Z,30.70
2023-03-31T12:57:09.449Z,29.79
2023-03-31T13:00:26.217Z,27.68
2023-03-31T13:03:35.570Z,28.32
2023-03-31T13:06:38.532Z,27.91
2023-03-31T13:09:48.503Z,28.14
2023-03-31T13:13:01.283Z,29.27
2023-03-31T13:16:05.202Z,28.26
2023-03-31T13:19:11.019Z,26.09
2023-03-31T13:22:50.511Z,28.55
2023-03-31T13:25:55.760Z,28.07
2023-03-31T13:29:17.655Z,25.71
2023-03-31T13:32:27.825Z,26.46
2023-03-31T13:35:34.221Z,25.47
2023-03-31T13:38:45.808Z,24.54
2023-03-31T13:42:08.035Z,23.37
2023-03-31T13:45:43.220Z,22.44
2023-03-31T13:48:55.289Z,23.15
2023-03-31T13:52:09.627Z,23.87
2023-03-31T13:55:29.019Z,23.42
2023-03-31T13:59:16.939Z,23.16
2023-03-31T14:02:28.482Z,22.74
2023-03-31T14:05:39.980Z,21.83
2023-03-31T14:08:51.976Z,21.68
2023-03-31T14:11:55.025Z,21.85
2023-03-31T14:15:18.614Z,21.71
2023-03-31T14:18:27.399Z,21.30
2023-03-31T14:21:57.381Z,21.02
2023-03-31T14:25:33.698Z,21.26
2023-03-31T14:29:20.757Z,21.50
2023-03-31T14:32:39.819Z,22.79
2023-03-31T14:36:02.267Z,22.29
2023-03-31T14:39:09.497Z,22.30
2023-03-31T14:42:18.813Z,22.19
2023-03-31T14:45:26.763Z,22.25
2023-03-31T14:48:33.360Z,22.06
2023-03-31T14:51:36.458Z,22.11
2023-03-31T14:54:41.374Z,21.70
2023-03-31T14:57:47.600Z,21.41
2023-03-31T15:00:50.970Z,21.46
2023-03-31T15:03:55.622Z,20.73
2023-03-31T15:07:02.681Z,20.63
2023-03-31T15:10:07.043Z,20.28
2023-03-31T15:13:15.611Z,20.17
2023-03-31T15:16:30.675Z,20.15
2023-03-31T15:19:36.996Z,19.72
2023-03-31T15:22:40.325Z,19.49
2023-03-31T15:25:44.532Z,19.53
2023-03-31T15:28:59.177Z,19.40
2023-03-31T15:32:03.635Z,19.33
2023-03-31T15:38:27.694Z,19.05
2023-03-31T15:41:32.118Z,18.91
2023-03-31T15:44:39.094Z,18.72
2023-03-31T15:47:55.005Z,18.51
2023-03-31T15:51:06.634Z,18.53
2023-03-31T15:54:45.144Z,18.45
2023-03-31T15:57:47.996Z,18.42
2023-03-31T16:01:02.474Z,18.41
2023-03-31T16:04:12.246Z,18.31
2023-03-31T16:07:29.150Z,17.98
2023-03-31T16:10:35.350Z,17.79
2023-03-31T16:13:42.137Z,17.73
2023-03-31T16:16:56.624Z,17.49
2023-03-31T16:20:23.035Z,17.41
2023-03-31T16:23:30.115Z,17.34
2023-03-31T16:26:33.810Z,17.25
2023-03-31T16:29:38.545Z,17.20
2023-03-31T16:33:02.189Z,17.07
2023-03-31T16:36:05.783Z,17.07
2023-03-31T16:39:09.305Z,16.95
2023-03-31T16:42:12.224Z,16.91
2023-03-31T16:45:15.179Z,16.90
2023-03-31T16:48:28.395Z,16.71
2023-03-31T16:51:31.353Z,16.58
2023-03-31T16:54:34.547Z,16.54
2023-03-31T16:57:37.343Z,16.47
2023-03-31T17:00:40.732Z,16.38
2023-03-31T17:03:44.011Z,16.27
2023-03-31T17:09:50.586Z,16.15
2023-03-31T17:12:53.553Z,16.05
2023-03-31T17:16:04.614Z,15.95
2023-03-31T17:19:17.507Z,15.89
2023-03-31T17:22:20.472Z,15.83
2023-03-31T17:25:23.631Z,15.81
2023-03-31T17:28:26.610Z,15.71
2023-03-31T17:31:30.757Z,15.67
2023-03-31T17:34:33.524Z,15.61
2023-03-31T17:37:37.492Z,15.57
2023-03-31T17:40:40.996Z,15.49
2023-03-31T17:43:49.157Z,15.44
2023-03-31T17:46:52.627Z,15.38
2023-03-31T17:49:55.593Z,15.35
2023-03-31T17:52:58.850Z,15.31
2023-03-31T17:56:03.383Z,15.25
2023-03-31T17:59:06.730Z,15.21
2023-03-31T18:02:13.253Z,15.20
2023-03-31T18:05:18.201Z,15.13
2023-03-31T18:08:22.073Z,15.10
2023-03-31T18:11:24.982Z,15.09
2023-03-31T18:14:29.030Z,15.05
2023-03-31T18:17:31.959Z,15.03
2023-03-31T18:20:35.049Z,14.98
2023-03-31T18:23:39.041Z,14.96
2023-03-31T18:26:41.868Z,14.95
2023-03-31T18:29:44.867Z,14.97
2023-03-31T18:32:48.227Z,15.01
2023-03-31T18:35:51.300Z,14.94
2023-03-31T18:38:55.550Z,14.87
2023-03-31T18:41:59.728Z,14.85
2023-03-31T18:45:03.277Z,14.94
2023-03-31T18:48:06.513Z,14.89
2023-03-31T18:51:09.825Z,14.79
2023-03-31T18:54:12.920Z,14.87
2023-03-31T18:57:16.353Z,14.83
2023-03-31T19:00:20.719Z,14.79
2023-03-31T19:03:24.373Z,14.70
2023-03-31T19:06:27.990Z,14.64
2023-03-31T19:09:31.209Z,14.61
2023-03-31T19:12:34.671Z,14.64
2023-03-31T19:15:37.571Z,14.57
2023-03-31T19:18:41.247Z,14.48
2023-03-31T19:21:45.021Z,14.39
2023-03-31T19:24:48.120Z,14.42
2023-03-31T19:27:51.918Z,14.28
2023-03-31T19:30:56.890Z,14.21
2023-03-31T19:34:01.448Z,14.19
2023-03-31T19:37:05.155Z,14.15
2023-03-31T19:40:10.252Z,14.11
2023-03-31T19:43:23.696Z,14.04
2023-03-31T19:46:26.920Z,13.98
2023-03-31T19:49:30.112Z,13.89
2023-03-31T19:52:33.269Z,13.87
2023-03-31T19:55:37.766Z,13.82
2023-03-31T19:58:41.515Z,13.76
2023-03-31T20:01:44.840Z,13.66
2023-03-31T20:04:48.672Z,13.67
2023-03-31T20:07:51.927Z,13.68
2023-03-31T20:11:04.120Z,13.69
2023-03-31T20:14:07.681Z,13.61
2023-03-31T20:17:12.992Z,13.59
2023-03-31T20:20:16.161Z,13.48
2023-03-31T20:23:18.923Z,13.36
2023-03-31T20:26:25.314Z,13.34
2023-03-31T20:29:28.711Z,13.20
2023-03-31T20:32:32.533Z,13.08
2023-03-31T20:35:37.796Z,13.10
2023-03-31T20:38:43.189Z,12.98
2023-03-31T20:41:47.525Z,12.99
2023-03-31T20:44:50.704Z,12.94
2023-03-31T20:47:53.554Z,12.80
2023-03-31T20:50:57.653Z,12.75
2023-03-31T20:54:02.033Z,12.75
2023-03-31T20:57:07.361Z,12.72
2023-03-31T21:00:11.416Z,12.72
2023-03-31T21:03:14.626Z,12.68
2023-03-31T21:06:18.770Z,12.68
2023-03-31T21:09:21.993Z,12.65
2023-03-31T21:12:25.212Z,12.59
2023-03-31T21:15:27.970Z,12.55
2023-03-31T21:18:32.950Z,12.49
2023-03-31T21:21:36.228Z,12.44
2023-03-31T21:24:39.023Z,12.53
2023-03-31T21:27:41.992Z,12.43
2023-03-31T21:30:56.468Z,12.33
2023-03-31T21:34:01.512Z,12.38
2023-03-31T21:37:04.960Z,12.30
2023-03-31T21:40:08.666Z,12.22
2023-03-31T21:43:12.386Z,12.16
2023-03-31T21:46:17.258Z,12.06
2023-03-31T21:49:20.187Z,11.98
2023-03-31T21:52:23.107Z,11.90
2023-03-31T21:55:25.918Z,11.82
2023-03-31T21:58:30.007Z,11.72
2023-03-31T22:01:32.898Z,11.74
2023-03-31T22:04:36.026Z,11.77
2023-03-31T22:07:38.770Z,11.69
2023-03-31T22:10:41.495Z,11.66
2023-03-31T22:13:44.704Z,11.61
2023-03-31T22:16:47.888Z,11.55
2023-03-31T22:19:50.784Z,11.54
2023-03-31T22:22:53.687Z,11.44
2023-03-31T22:25:56.416Z,11.41
2023-03-31T22:28:59.259Z,11.37
2023-03-31T22:32:02.218Z,11.35
2023-03-31T22:35:05.529Z,11.29
2023-03-31T22:38:08.793Z,11.21
2023-03-31T22:41:11.906Z,11.09
2023-03-31T22:44:15.676Z,11.06
2023-03-31T22:47:18.554Z,11.02
2023-03-31T22:50:21.785Z,10.99
2023-03-31T22:53:25.042Z,10.91
2023-03-31T22:56:28.439Z,10.95
2023-03-31T22:59:31.588Z,10.92
2023-03-31T23:02:34.386Z,10.90
2023-03-31T23:05:37.386Z,10.91
2023-03-31T23:08:41.173Z,10.94
2023-03-31T23:11:45.161Z,10.99
2023-03-31T23:14:48.097Z,11.03
2023-03-31T23:17:50.946Z,10.96
2023-03-31T23:20:53.735Z,10.98
2023-03-31T23:23:59.762Z,10.83
2023-03-31T23:27:02.481Z,10.79
2023-03-31T23:30:06.389Z,10.90
2023-03-31T23:33:09.240Z,10.80
2023-03-31T23:36:17.249Z,10.71
2023-03-31T23:39:20.087Z,10.66
2023-03-31T23:42:23.026Z,10.62
2023-03-31T23:45:25.896Z,10.59
2023-03-31T23:48:28.604Z,10.59
2023-03-31T23:51:31.862Z,10.56
2023-03-31T23:54:34.982Z,10.50
2023-03-31T23:57:37.767Z,10.40
